VOE2631 DAAE-LFML
Flight info
| Callsign | VOE2631 |
|---|---|
| Flight time | 1h 6m |
| Altitude | 36000 |
| Route | BJA UN736 DOLIS DCT LUNOR DCT SURJU DCT RASPA UN854 TINOT |
| Aircraft | A319/M-SDFGIJ1RWY/LB1 |
Departure
| Time | 2026-05-04 16:17 |
|---|---|
| Airport | Soummam–Abane Ramdane Airport (DAAE) |
Arrival
| Time | 2026-05-04 17:23 |
|---|---|
| Airport | Marseille Provence Airport (LFML) |
| Time | Latitude | Longitude | Altitude | Speed | Heading |
|---|---|---|---|---|---|
| 2026-05-04 15:57 | 36.71430 | 5.07245 | 22 ft | 0 kts | 216° |
| 2026-05-04 16:13 | 36.71417 | 5.07233 | 23 ft | 5 kts | 216° |
| 2026-05-04 16:14 | 36.71365 | 5.06981 | 22 ft | 24 kts | 259° |
| 2026-05-04 16:14 | 36.71173 | 5.06764 | 22 ft | 23 kts | 261° |
| 2026-05-04 16:15 | 36.71092 | 5.06069 | 26 ft | 32 kts | 262° |
| 2026-05-04 16:16 | 36.71078 | 5.05687 | 26 ft | 15 kts | 198° |
| 2026-05-04 16:16 | 36.71109 | 5.06216 | 27 ft | 89 kts | 82° |
| 2026-05-04 16:17 | 36.71388 | 5.08569 | 1014 ft | 149 kts | 82° |
| 2026-05-04 16:18 | 36.73116 | 5.11453 | 3118 ft | 186 kts | 6° |
| 2026-05-04 16:18 | 36.74500 | 5.11549 | 3669 ft | 211 kts | 4° |
| 2026-05-04 16:19 | 36.79669 | 5.12037 | 5759 ft | 281 kts | 4° |
| 2026-05-04 16:19 | 36.83689 | 5.12476 | 7943 ft | 295 kts | 3° |
| 2026-05-04 16:20 | 36.90090 | 5.13192 | 10762 ft | 332 kts | 1° |
| 2026-05-04 16:20 | 36.95045 | 5.13723 | 11633 ft | 382 kts | 1° |
| 2026-05-04 16:21 | 37.03398 | 5.14666 | 13686 ft | 411 kts | 1° |
| 2026-05-04 16:22 | 37.09170 | 5.15341 | 15204 ft | 420 kts | 0° |
| 2026-05-04 16:22 | 37.18061 | 5.16353 | 17298 ft | 435 kts | 0° |
| 2026-05-04 16:23 | 37.27255 | 5.17387 | 19125 ft | 448 kts | 0° |
| 2026-05-04 16:24 | 37.39871 | 5.18828 | 21247 ft | 463 kts | 0° |
| 2026-05-04 16:25 | 37.46334 | 5.19554 | 22237 ft | 469 kts | 0° |
| 2026-05-04 16:26 | 37.59522 | 5.21068 | 24012 ft | 481 kts | 1° |
| 2026-05-04 16:26 | 37.69606 | 5.22230 | 25117 ft | 488 kts | 1° |
| 2026-05-04 16:27 | 37.76421 | 5.23015 | 25805 ft | 493 kts | 1° |
| 2026-05-04 16:28 | 37.86753 | 5.24206 | 26778 ft | 502 kts | 0° |
| 2026-05-04 16:28 | 37.97238 | 5.25412 | 28028 ft | 502 kts | 0° |
| 2026-05-04 16:29 | 38.11107 | 5.27036 | 30063 ft | 499 kts | 1° |
| 2026-05-04 16:30 | 38.21479 | 5.28219 | 31411 ft | 496 kts | 0° |
| 2026-05-04 16:31 | 38.28361 | 5.29016 | 32334 ft | 495 kts | 0° |
| 2026-05-04 16:31 | 38.38626 | 5.30226 | 33756 ft | 493 kts | 360° |
| 2026-05-04 16:32 | 38.48848 | 5.31422 | 35142 ft | 490 kts | 359° |
| 2026-05-04 16:33 | 38.55619 | 5.32224 | 35944 ft | 487 kts | 359° |
| 2026-05-04 16:33 | 38.62352 | 5.33024 | 36007 ft | 485 kts | 359° |
| 2026-05-04 16:34 | 38.72420 | 5.34201 | 36008 ft | 483 kts | 359° |
| 2026-05-04 16:35 | 38.92534 | 5.36579 | 36003 ft | 484 kts | 359° |
| 2026-05-04 16:36 | 39.02614 | 5.37682 | 36023 ft | 483 kts | 356° |
| 2026-05-04 16:37 | 39.12647 | 5.37804 | 36014 ft | 480 kts | 352° |
| 2026-05-04 16:38 | 39.26038 | 5.37827 | 36023 ft | 482 kts | 354° |
| 2026-05-04 16:39 | 39.42819 | 5.38157 | 35996 ft | 482 kts | 354° |
| 2026-05-04 16:40 | 39.56212 | 5.38354 | 35995 ft | 482 kts | 354° |
| 2026-05-04 16:41 | 39.71913 | 5.38594 | 35995 ft | 483 kts | 354° |
| 2026-05-04 16:43 | 39.88736 | 5.38875 | 35979 ft | 483 kts | 354° |
| 2026-05-04 16:43 | 39.98854 | 5.39010 | 35972 ft | 485 kts | 354° |
| 2026-05-04 16:45 | 40.19090 | 5.39358 | 35965 ft | 486 kts | 354° |
| 2026-05-04 16:46 | 40.36051 | 5.39625 | 35971 ft | 487 kts | 354° |
| 2026-05-04 16:47 | 40.49683 | 5.41379 | 35964 ft | 493 kts | 0° |
| 2026-05-04 16:48 | 40.63319 | 5.43498 | 35960 ft | 493 kts | 0° |
| 2026-05-04 16:49 | 40.76972 | 5.45616 | 35957 ft | 493 kts | 0° |
| 2026-05-04 16:50 | 40.90619 | 5.47747 | 35973 ft | 493 kts | 0° |
| 2026-05-04 16:51 | 41.00833 | 5.49333 | 35986 ft | 493 kts | 0° |
| 2026-05-04 16:52 | 41.14511 | 5.51497 | 35957 ft | 495 kts | 0° |
| 2026-05-04 16:53 | 41.24788 | 5.53119 | 35975 ft | 496 kts | 0° |
| 2026-05-04 16:54 | 41.38525 | 5.55281 | 35953 ft | 497 kts | 0° |
| 2026-05-04 16:55 | 41.59171 | 5.58563 | 35950 ft | 498 kts | 0° |
| 2026-05-04 16:56 | 41.76363 | 5.60661 | 35948 ft | 487 kts | 347° |
| 2026-05-04 16:57 | 41.85820 | 5.57089 | 35957 ft | 464 kts | 328° |
| 2026-05-04 16:58 | 41.97704 | 5.50204 | 35955 ft | 465 kts | 328° |
| 2026-05-04 17:00 | 42.15641 | 5.40029 | 35608 ft | 475 kts | 337° |
| 2026-05-04 17:00 | 42.25659 | 5.38153 | 34820 ft | 488 kts | 346° |
| 2026-05-04 17:01 | 42.32483 | 5.37128 | 32447 ft | 499 kts | 347° |
| 2026-05-04 17:01 | 42.39382 | 5.36095 | 30240 ft | 499 kts | 348° |
| 2026-05-04 17:02 | 42.46296 | 5.35048 | 27446 ft | 501 kts | 349° |
| 2026-05-04 17:02 | 42.53242 | 5.34000 | 24474 ft | 503 kts | 351° |
| 2026-05-04 17:03 | 42.56717 | 5.33481 | 23282 ft | 498 kts | 351° |
| 2026-05-04 17:03 | 42.60132 | 5.32974 | 22113 ft | 489 kts | 351° |
| 2026-05-04 17:03 | 42.66818 | 5.31922 | 19804 ft | 475 kts | 347° |
| 2026-05-04 17:04 | 42.72906 | 5.28986 | 17740 ft | 458 kts | 329° |
| 2026-05-04 17:04 | 42.78324 | 5.24659 | 15681 ft | 446 kts | 326° |
| 2026-05-04 17:05 | 42.83630 | 5.20452 | 13910 ft | 434 kts | 326° |
| 2026-05-04 17:05 | 42.88752 | 5.16370 | 12709 ft | 421 kts | 326° |
| 2026-05-04 17:06 | 42.93814 | 5.12436 | 11591 ft | 417 kts | 332° |
| 2026-05-04 17:06 | 42.96515 | 5.11120 | 11262 ft | 403 kts | 342° |
| 2026-05-04 17:07 | 43.01631 | 5.09368 | 11015 ft | 358 kts | 343° |
| 2026-05-04 17:07 | 43.03197 | 5.08823 | 10930 ft | 346 kts | 342° |
| 2026-05-04 17:07 | 43.06219 | 5.07770 | 10774 ft | 325 kts | 342° |
| 2026-05-04 17:07 | 43.08367 | 5.07016 | 10653 ft | 312 kts | 343° |
| 2026-05-04 17:08 | 43.10434 | 5.06290 | 10503 ft | 302 kts | 341° |
| 2026-05-04 17:08 | 43.14488 | 5.04857 | 10319 ft | 301 kts | 341° |
| 2026-05-04 17:08 | 43.16488 | 5.04151 | 10209 ft | 300 kts | 343° |
| 2026-05-04 17:09 | 43.18497 | 5.03445 | 10075 ft | 298 kts | 343° |
| 2026-05-04 17:09 | 43.20513 | 5.02789 | 9930 ft | 299 kts | 348° |
| 2026-05-04 17:09 | 43.22626 | 5.02556 | 9628 ft | 302 kts | 354° |
| 2026-05-04 17:10 | 43.26758 | 5.02265 | 9070 ft | 295 kts | 355° |
| 2026-05-04 17:10 | 43.32948 | 5.01807 | 8327 ft | 294 kts | 356° |
| 2026-05-04 17:11 | 43.34975 | 5.01852 | 8066 ft | 291 kts | 1° |
| 2026-05-04 17:11 | 43.37001 | 5.01958 | 7804 ft | 291 kts | 1° |
| 2026-05-04 17:11 | 43.41009 | 5.02130 | 7293 ft | 287 kts | 358° |
| 2026-05-04 17:12 | 43.42978 | 5.01657 | 7035 ft | 284 kts | 340° |
| 2026-05-04 17:12 | 43.46174 | 4.98693 | 6171 ft | 278 kts | 311° |
| 2026-05-04 17:13 | 43.50342 | 4.93134 | 5003 ft | 277 kts | 313° |
| 2026-05-04 17:14 | 43.54070 | 4.88167 | 5001 ft | 280 kts | 314° |
| 2026-05-04 17:14 | 43.55513 | 4.86431 | 4985 ft | 269 kts | 328° |
| 2026-05-04 17:14 | 43.58831 | 4.86049 | 4998 ft | 225 kts | 28° |
| 2026-05-04 17:15 | 43.60043 | 4.87168 | 4992 ft | 206 kts | 53° |
| 2026-05-04 17:15 | 43.61536 | 4.90410 | 4815 ft | 199 kts | 68° |
| 2026-05-04 17:16 | 43.62017 | 4.93882 | 4480 ft | 176 kts | 106° |
| 2026-05-04 17:16 | 43.60143 | 4.97933 | 4175 ft | 168 kts | 135° |
| 2026-05-04 17:17 | 43.59333 | 4.99097 | 4089 ft | 169 kts | 135° |
| 2026-05-04 17:17 | 43.56932 | 5.02545 | 3491 ft | 162 kts | 133° |
| 2026-05-04 17:18 | 43.56153 | 5.03661 | 3276 ft | 160 kts | 133° |
| 2026-05-04 17:18 | 43.54617 | 5.05863 | 2849 ft | 158 kts | 132° |
| 2026-05-04 17:19 | 43.53130 | 5.07992 | 2445 ft | 150 kts | 132° |
| 2026-05-04 17:19 | 43.51710 | 5.10024 | 2038 ft | 147 kts | 133° |
| 2026-05-04 17:20 | 43.50433 | 5.11848 | 1684 ft | 110 kts | 133° |
| 2026-05-04 17:20 | 43.49452 | 5.13251 | 1409 ft | 97 kts | 133° |
| 2026-05-04 17:20 | 43.48982 | 5.13922 | 1280 ft | 99 kts | 134° |
| 2026-05-04 17:21 | 43.48028 | 5.15284 | 1019 ft | 99 kts | 134° |
| 2026-05-04 17:21 | 43.47027 | 5.16713 | 729 ft | 108 kts | 131° |
| 2026-05-04 17:22 | 43.46497 | 5.17470 | 582 ft | 111 kts | 131° |
| 2026-05-04 17:22 | 43.45943 | 5.18260 | 417 ft | 117 kts | 132° |
| 2026-05-04 17:23 | 43.44217 | 5.20724 | 52 ft | 117 kts | 131° |
| 2026-05-04 17:23 | 43.43725 | 5.21427 | 37 ft | 75 kts | 134° |
| 2026-05-04 17:23 | 43.43331 | 5.22045 | 36 ft | 27 kts | 106° |
| 2026-05-04 17:24 | 43.43365 | 5.22267 | 37 ft | 24 kts | 34° |
| 2026-05-04 17:24 | 43.43738 | 5.22033 | 37 ft | 17 kts | 335° |
| 2026-05-04 17:25 | 43.43828 | 5.22095 | 38 ft | 15 kts | 43° |
| 2026-05-04 17:25 | 43.43961 | 5.22081 | 38 ft | 11 kts | 314° |
| 2026-05-04 17:26 | 43.44048 | 5.22073 | 38 ft | 6 kts | 46° |
| 2026-05-04 17:26 | 43.44055 | 5.22083 | 38 ft | 0 kts | 50° |
| 2026-05-04 17:30 | 43.44054 | 5.22083 | 38 ft | 0 kts | 50° |